sensor_id;sensor_type;location;lat;lon;timestamp;pressure;altitude;pressure_sealevel;temperature;humidity
28000;BME280;15328;50.860;10.562;2023-07-13T00:01:47;96380.78;;;20.14;40.90
28000;BME280;15328;50.860;10.562;2023-07-13T00:06:49;96388.13;;;20.08;41.19
28000;BME280;15328;50.860;10.562;2023-07-13T00:11:53;96401.66;;;20.03;41.16
28000;BME280;15328;50.860;10.562;2023-07-13T00:16:54;96410.81;;;20.07;41.05
28000;BME280;15328;50.860;10.562;2023-07-13T00:21:54;96418.63;;;20.09;41.08
28000;BME280;15328;50.860;10.562;2023-07-13T00:26:55;96415.13;;;20.08;41.22
28000;BME280;15328;50.860;10.562;2023-07-13T00:31:56;96420.75;;;20.12;41.36
28000;BME280;15328;50.860;10.562;2023-07-13T00:36:57;96401.56;;;20.18;40.90
28000;BME280;15328;50.860;10.562;2023-07-13T00:41:58;96404.22;;;20.23;40.58
28000;BME280;15328;50.860;10.562;2023-07-13T00:46:59;96411.25;;;20.19;40.89
28000;BME280;15328;50.860;10.562;2023-07-13T00:52:10;96412.41;;;20.08;41.10
28000;BME280;15328;50.860;10.562;2023-07-13T00:57:15;96416.69;;;20.14;41.68
28000;BME280;15328;50.860;10.562;2023-07-13T01:02:16;96415.94;;;20.09;42.01
28000;BME280;15328;50.860;10.562;2023-07-13T01:07:18;96404.09;;;19.94;42.26
28000;BME280;15328;50.860;10.562;2023-07-13T01:12:19;96402.81;;;19.87;42.35
28000;BME280;15328;50.860;10.562;2023-07-13T01:17:19;96401.53;;;19.69;42.66
28000;BME280;15328;50.860;10.562;2023-07-13T01:22:20;96398.53;;;19.70;42.92
28000;BME280;15328;50.860;10.562;2023-07-13T01:27:26;96411.31;;;19.55;43.56
28000;BME280;15328;50.860;10.562;2023-07-13T01:32:26;96401.59;;;19.54;43.31
28000;BME280;15328;50.860;10.562;2023-07-13T01:37:27;96400.78;;;19.48;43.28
28000;BME280;15328;50.860;10.562;2023-07-13T01:42:27;96396.19;;;19.43;43.50
28000;BME280;15328;50.860;10.562;2023-07-13T01:47:28;96401.59;;;19.38;43.66
28000;BME280;15328;50.860;10.562;2023-07-13T01:52:30;96407.31;;;19.27;44.11
28000;BME280;15328;50.860;10.562;2023-07-13T01:57:31;96415.69;;;19.20;44.16
28000;BME280;15328;50.860;10.562;2023-07-13T02:02:31;96410.53;;;19.24;43.99
28000;BME280;15328;50.860;10.562;2023-07-13T02:07:32;96413.25;;;19.19;44.37
28000;BME280;15328;50.860;10.562;2023-07-13T02:12:32;96400.88;;;19.18;44.07
28000;BME280;15328;50.860;10.562;2023-07-13T02:17:34;96393.59;;;19.08;44.65
28000;BME280;15328;50.860;10.562;2023-07-13T02:22:35;96393.84;;;19.06;44.92
28000;BME280;15328;50.860;10.562;2023-07-13T02:27:35;96394.41;;;19.03;44.65
28000;BME280;15328;50.860;10.562;2023-07-13T02:32:35;96401.97;;;18.91;45.04
28000;BME280;15328;50.860;10.562;2023-07-13T02:37:36;96406.56;;;18.96;45.04
28000;BME280;15328;50.860;10.562;2023-07-13T02:42:36;96403.06;;;18.90;45.52
28000;BME280;15328;50.860;10.562;2023-07-13T02:47:36;96406.53;;;18.80;45.80
28000;BME280;15328;50.860;10.562;2023-07-13T02:52:37;96416.25;;;18.71;46.11
28000;BME280;15328;50.860;10.562;2023-07-13T02:57:37;96410.63;;;18.63;46.29
28000;BME280;15328;50.860;10.562;2023-07-13T03:02:38;96417.56;;;18.53;46.46
28000;BME280;15328;50.860;10.562;2023-07-13T03:07:39;96424.56;;;18.54;46.47
28000;BME280;15328;50.860;10.562;2023-07-13T03:12:39;96426.72;;;18.47;47.00
28000;BME280;15328;50.860;10.562;2023-07-13T03:17:39;96434.00;;;18.47;46.79
28000;BME280;15328;50.860;10.562;2023-07-13T03:22:40;96432.91;;;18.48;46.53
28000;BME280;15328;50.860;10.562;2023-07-13T03:27:40;96445.56;;;18.52;46.50
28000;BME280;15328;50.860;10.562;2023-07-13T03:32:41;96438.84;;;18.55;46.27
28000;BME280;15328;50.860;10.562;2023-07-13T03:37:41;96457.69;;;18.55;46.24
28000;BME280;15328;50.860;10.562;2023-07-13T03:42:42;96461.19;;;18.56;45.85
28000;BME280;15328;50.860;10.562;2023-07-13T03:47:42;96464.97;;;18.49;45.88
28000;BME280;15328;50.860;10.562;2023-07-13T03:52:43;96466.31;;;18.52;45.92
28000;BME280;15328;50.860;10.562;2023-07-13T03:57:43;96463.34;;;18.53;46.18
28000;BME280;15328;50.860;10.562;2023-07-13T04:02:43;96467.66;;;18.54;46.21
28000;BME280;15328;50.860;10.562;2023-07-13T04:07:45;96472.50;;;18.52;46.37
28000;BME280;15328;50.860;10.562;2023-07-13T04:12:45;96472.56;;;18.63;46.38
28000;BME280;15328;50.860;10.562;2023-07-13T04:17:45;96474.19;;;18.69;46.93
28000;BME280;15328;50.860;10.562;2023-07-13T04:22:46;96475.25;;;18.68;47.60
28000;BME280;15328;50.860;10.562;2023-07-13T04:27:46;96468.00;;;18.68;47.92
28000;BME280;15328;50.860;10.562;2023-07-13T04:32:47;96473.66;;;18.72;48.32
28000;BME280;15328;50.860;10.562;2023-07-13T04:37:49;96465.56;;;18.72;48.84
28000;BME280;15328;50.860;10.562;2023-07-13T04:42:50;96479.84;;;18.72;49.03
28000;BME280;15328;50.860;10.562;2023-07-13T04:47:50;96478.78;;;18.68;48.49
28000;BME280;15328;50.860;10.562;2023-07-13T04:52:51;96488.72;;;18.78;48.27
28000;BME280;15328;50.860;10.562;2023-07-13T04:57:51;96476.34;;;18.87;48.20
28000;BME280;15328;50.860;10.562;2023-07-13T05:02:52;96483.91;;;19.00;48.64
28000;BME280;15328;50.860;10.562;2023-07-13T05:07:53;96489.56;;;19.19;48.72
28000;BME280;15328;50.860;10.562;2023-07-13T05:12:53;96489.81;;;19.33;48.87
28000;BME280;15328;50.860;10.562;2023-07-13T05:17:54;96493.84;;;19.51;48.90
28000;BME280;15328;50.860;10.562;2023-07-13T05:22:54;96488.69;;;19.64;48.79
28000;BME280;15328;50.860;10.562;2023-07-13T05:27:54;96491.09;;;19.81;48.79
28000;BME280;15328;50.860;10.562;2023-07-13T05:32:54;96497.25;;;19.92;48.96
28000;BME280;15328;50.860;10.562;2023-07-13T05:37:55;96483.97;;;20.05;48.29
28000;BME280;15328;50.860;10.562;2023-07-13T05:42:55;96486.59;;;20.21;47.41
28000;BME280;15328;50.860;10.562;2023-07-13T05:47:55;96498.66;;;20.38;46.92
28000;BME280;15328;50.860;10.562;2023-07-13T05:52:56;96495.09;;;20.58;44.99
28000;BME280;15328;50.860;10.562;2023-07-13T05:57:57;96495.81;;;20.69;44.70
28000;BME280;15328;50.860;10.562;2023-07-13T06:02:58;96495.72;;;20.84;44.20
28000;BME280;15328;50.860;10.562;2023-07-13T06:07:59;96501.00;;;20.99;43.80
28000;BME280;15328;50.860;10.562;2023-07-13T06:12:59;96504.41;;;21.15;43.30
28000;BME280;15328;50.860;10.562;2023-07-13T06:18:00;96501.28;;;21.32;43.03
28000;BME280;15328;50.860;10.562;2023-07-13T06:23:01;96505.50;;;21.48;42.09
28000;BME280;15328;50.860;10.562;2023-07-13T06:28:02;96523.34;;;21.49;42.07
28000;BME280;15328;50.860;10.562;2023-07-13T06:33:02;96519.59;;;21.45;41.34
28000;BME280;15328;50.860;10.562;2023-07-13T06:38:02;96530.31;;;21.55;41.41
28000;BME280;15328;50.860;10.562;2023-07-13T06:43:03;96532.38;;;21.64;41.00
28000;BME280;15328;50.860;10.562;2023-07-13T06:48:03;96540.38;;;21.79;40.99
28000;BME280;15328;50.860;10.562;2023-07-13T06:53:04;96536.81;;;21.83;40.59
28000;BME280;15328;50.860;10.562;2023-07-13T06:58:04;96544.91;;;21.83;40.04
28000;BME280;15328;50.860;10.562;2023-07-13T07:03:05;96545.88;;;21.98;39.34
28000;BME280;15328;50.860;10.562;2023-07-13T07:08:05;96554.72;;;22.08;39.05
28000;BME280;15328;50.860;10.562;2023-07-13T07:13:06;96550.09;;;22.09;38.51
28000;BME280;15328;50.860;10.562;2023-07-13T07:18:07;96552.44;;;22.15;38.00
28000;BME280;15328;50.860;10.562;2023-07-13T07:23:07;96547.00;;;22.20;38.17
28000;BME280;15328;50.860;10.562;2023-07-13T07:28:08;96561.81;;;22.28;37.99
28000;BME280;15328;50.860;10.562;2023-07-13T07:33:08;96552.94;;;22.23;37.50
28000;BME280;15328;50.860;10.562;2023-07-13T07:38:09;96545.03;;;22.26;37.77
28000;BME280;15328;50.860;10.562;2023-07-13T07:43:11;96547.03;;;22.39;37.70
28000;BME280;15328;50.860;10.562;2023-07-13T07:48:12;96551.22;;;22.50;37.49
28000;BME280;15328;50.860;10.562;2023-07-13T07:53:12;96551.00;;;22.47;37.46
28000;BME280;15328;50.860;10.562;2023-07-13T07:58:12;96555.50;;;22.75;37.06
28000;BME280;15328;50.860;10.562;2023-07-13T08:03:13;96560.06;;;22.80;35.53
28000;BME280;15328;50.860;10.562;2023-07-13T08:08:13;96560.53;;;22.87;33.74
28000;BME280;15328;50.860;10.562;2023-07-13T08:13:14;96558.75;;;22.96;33.99
28000;BME280;15328;50.860;10.562;2023-07-13T08:18:14;96567.56;;;23.07;33.31
28000;BME280;15328;50.860;10.562;2023-07-13T08:23:15;96577.16;;;23.18;32.70
28000;BME280;15328;50.860;10.562;2023-07-13T08:28:16;96570.69;;;23.33;32.86
28000;BME280;15328;50.860;10.562;2023-07-13T08:33:18;96567.09;;;23.70;32.01
28000;BME280;15328;50.860;10.562;2023-07-13T08:38:18;96578.56;;;23.67;31.19
28000;BME280;15328;50.860;10.562;2023-07-13T08:43:25;96578.56;;;23.67;31.72
28000;BME280;15328;50.860;10.562;2023-07-13T08:48:29;96569.25;;;23.87;31.68
28000;BME280;15328;50.860;10.562;2023-07-13T08:53:36;96565.94;;;24.03;31.64
28000;BME280;15328;50.860;10.562;2023-07-13T08:58:38;96562.97;;;24.19;30.76
28000;BME280;15328;50.860;10.562;2023-07-13T09:03:46;96571.75;;;24.43;30.43
28000;BME280;15328;50.860;10.562;2023-07-13T09:09:04;96577.66;;;24.59;29.46
28000;BME280;15328;50.860;10.562;2023-07-13T09:19:19;96589.53;;;24.77;29.56
28000;BME280;15328;50.860;10.562;2023-07-13T09:24:41;96587.50;;;24.96;28.74
28000;BME280;15328;50.860;10.562;2023-07-13T09:35:18;96584.19;;;24.99;29.50
28000;BME280;15328;50.860;10.562;2023-07-13T09:40:30;96578.22;;;25.33;29.49
28000;BME280;15328;50.860;10.562;2023-07-13T09:45:36;96581.00;;;25.64;29.17
28000;BME280;15328;50.860;10.562;2023-07-13T09:50:36;96578.75;;;25.80;27.81
28000;BME280;15328;50.860;10.562;2023-07-13T09:55:38;96592.09;;;25.68;27.88
28000;BME280;15328;50.860;10.562;2023-07-13T10:00:39;96602.81;;;25.86;27.82
28000;BME280;15328;50.860;10.562;2023-07-13T10:05:42;96578.47;;;25.90;26.43
28000;BME280;15328;50.860;10.562;2023-07-13T10:10:43;96593.50;;;26.18;27.36
28000;BME280;15328;50.860;10.562;2023-07-13T10:15:44;96593.34;;;26.55;27.30
28000;BME280;15328;50.860;10.562;2023-07-13T10:20:44;96610.53;;;27.12;26.58
28000;BME280;15328;50.860;10.562;2023-07-13T10:25:46;96587.56;;;27.74;24.66
28000;BME280;15328;50.860;10.562;2023-07-13T10:30:48;96602.81;;;27.57;24.33
28000;BME280;15328;50.860;10.562;2023-07-13T10:35:54;96601.38;;;27.60;24.64
28000;BME280;15328;50.860;10.562;2023-07-13T10:40:59;96597.53;;;27.78;23.85
28000;BME280;15328;50.860;10.562;2023-07-13T10:46:04;96596.72;;;27.52;23.79
28000;BME280;15328;50.860;10.562;2023-07-13T10:51:06;96605.25;;;27.76;24.57
28000;BME280;15328;50.860;10.562;2023-07-13T10:56:28;96604.69;;;28.09;23.29
28000;BME280;15328;50.860;10.562;2023-07-13T11:01:39;96593.63;;;28.52;22.27
28000;BME280;15328;50.860;10.562;2023-07-13T11:06:41;96612.56;;;28.27;22.31
28000;BME280;15328;50.860;10.562;2023-07-13T11:11:44;96610.47;;;28.24;22.91
28000;BME280;15328;50.860;10.562;2023-07-13T11:16:46;96597.53;;;28.72;22.63
28000;BME280;15328;50.860;10.562;2023-07-13T11:27:27;96583.59;;;29.15;20.36
28000;BME280;15328;50.860;10.562;2023-07-13T11:32:32;96605.25;;;29.08;22.01
28000;BME280;15328;50.860;10.562;2023-07-13T11:37:33;96598.31;;;28.81;20.47
28000;BME280;15328;50.860;10.562;2023-07-13T11:42:34;96587.94;;;28.95;21.90
28000;BME280;15328;50.860;10.562;2023-07-13T11:47:40;96589.28;;;29.10;21.15
28000;BME280;15328;50.860;10.562;2023-07-13T11:52:40;96592.09;;;29.22;20.95
28000;BME280;15328;50.860;10.562;2023-07-13T11:57:45;96598.97;;;29.28;21.02
28000;BME280;15328;50.860;10.562;2023-07-13T12:02:51;96597.44;;;29.18;20.38
28000;BME280;15328;50.860;10.562;2023-07-13T12:07:52;96606.28;;;28.95;20.32
28000;BME280;15328;50.860;10.562;2023-07-13T12:13:02;96610.72;;;29.08;21.44
28000;BME280;15328;50.860;10.562;2023-07-13T12:18:03;96602.31;;;29.34;20.97
28000;BME280;15328;50.860;10.562;2023-07-13T12:23:22;96596.91;;;29.46;21.71
28000;BME280;15328;50.860;10.562;2023-07-13T12:33:31;96596.38;;;29.11;21.53
28000;BME280;15328;50.860;10.562;2023-07-13T12:38:32;96597.91;;;29.41;21.40
28000;BME280;15328;50.860;10.562;2023-07-13T12:43:34;96607.94;;;29.37;19.57
28000;BME280;15328;50.860;10.562;2023-07-13T12:48:41;96606.41;;;29.81;20.22
28000;BME280;15328;50.860;10.562;2023-07-13T12:53:47;96623.97;;;30.01;19.38
28000;BME280;15328;50.860;10.562;2023-07-13T12:58:49;96608.63;;;30.21;18.86
28000;BME280;15328;50.860;10.562;2023-07-13T13:03:55;96600.53;;;30.37;19.92
28000;BME280;15328;50.860;10.562;2023-07-13T13:08:57;96606.63;;;30.42;18.62
28000;BME280;15328;50.860;10.562;2023-07-13T13:14:01;96608.91;;;30.65;19.30
28000;BME280;15328;50.860;10.562;2023-07-13T13:19:13;96615.63;;;30.55;18.73
28000;BME280;15328;50.860;10.562;2023-07-13T13:24:18;96626.47;;;29.94;19.49
28000;BME280;15328;50.860;10.562;2023-07-13T13:29:21;96634.59;;;29.49;19.80
28000;BME280;15328;50.860;10.562;2023-07-13T13:34:25;96616.72;;;29.22;20.81
28000;BME280;15328;50.860;10.562;2023-07-13T13:39:33;96631.78;;;29.37;20.76
28000;BME280;15328;50.860;10.562;2023-07-13T13:44:34;96629.44;;;29.06;20.46
28000;BME280;15328;50.860;10.562;2023-07-13T13:49:34;96633.66;;;28.95;20.70
28000;BME280;15328;50.860;10.562;2023-07-13T13:54:36;96627.75;;;28.84;21.29
28000;BME280;15328;50.860;10.562;2023-07-13T13:59:36;96625.19;;;28.41;20.99
28000;BME280;15328;50.860;10.562;2023-07-13T14:04:39;96622.69;;;28.10;22.08
28000;BME280;15328;50.860;10.562;2023-07-13T14:09:39;96628.22;;;27.84;21.34
28000;BME280;15328;50.860;10.562;2023-07-13T14:14:40;96631.78;;;27.67;21.92
28000;BME280;15328;50.860;10.562;2023-07-13T14:19:40;96626.28;;;27.50;22.12
28000;BME280;15328;50.860;10.562;2023-07-13T14:24:41;96620.19;;;27.27;22.29
28000;BME280;15328;50.860;10.562;2023-07-13T14:29:42;96623.72;;;27.19;23.00
28000;BME280;15328;50.860;10.562;2023-07-13T14:34:42;96629.25;;;26.96;23.33
28000;BME280;15328;50.860;10.562;2023-07-13T14:39:44;96616.50;;;26.66;23.58
28000;BME280;15328;50.860;10.562;2023-07-13T14:44:44;96621.19;;;26.74;23.97
28000;BME280;15328;50.860;10.562;2023-07-13T14:49:45;96635.75;;;26.61;23.93
28000;BME280;15328;50.860;10.562;2023-07-13T14:54:48;96616.28;;;26.54;24.02
28000;BME280;15328;50.860;10.562;2023-07-13T14:59:49;96636.41;;;26.66;24.13
28000;BME280;15328;50.860;10.562;2023-07-13T15:04:49;96638.66;;;26.73;24.52
28000;BME280;15328;50.860;10.562;2023-07-13T15:09:50;96631.13;;;26.78;24.61
28000;BME280;15328;50.860;10.562;2023-07-13T15:14:51;96625.50;;;26.75;24.54
28000;BME280;15328;50.860;10.562;2023-07-13T15:19:51;96626.34;;;26.84;25.11
28000;BME280;15328;50.860;10.562;2023-07-13T15:24:51;96626.03;;;26.86;24.98
28000;BME280;15328;50.860;10.562;2023-07-13T15:29:52;96625.03;;;26.82;24.60
28000;BME280;15328;50.860;10.562;2023-07-13T15:34:52;96617.00;;;26.76;24.96
28000;BME280;15328;50.860;10.562;2023-07-13T15:39:53;96623.13;;;26.82;24.97
28000;BME280;15328;50.860;10.562;2023-07-13T15:44:53;96632.88;;;26.66;25.30
28000;BME280;15328;50.860;10.562;2023-07-13T15:49:53;96631.59;;;26.72;25.35
28000;BME280;15328;50.860;10.562;2023-07-13T15:54:54;96625.25;;;26.45;25.22
28000;BME280;15328;50.860;10.562;2023-07-13T15:59:55;96627.97;;;26.37;25.39
28000;BME280;15328;50.860;10.562;2023-07-13T16:04:55;96630.72;;;26.23;25.77
28000;BME280;15328;50.860;10.562;2023-07-13T16:09:56;96627.78;;;26.11;25.31
28000;BME280;15328;50.860;10.562;2023-07-13T16:14:56;96628.56;;;26.03;25.45
28000;BME280;15328;50.860;10.562;2023-07-13T16:19:56;96637.91;;;25.88;27.24
28000;BME280;15328;50.860;10.562;2023-07-13T16:24:57;96634.53;;;25.82;27.85
28000;BME280;15328;50.860;10.562;2023-07-13T16:29:59;96626.97;;;25.79;27.63
28000;BME280;15328;50.860;10.562;2023-07-13T16:34:59;96639.78;;;25.79;27.18
28000;BME280;15328;50.860;10.562;2023-07-13T16:40:00;96648.06;;;25.74;27.77
28000;BME280;15328;50.860;10.562;2023-07-13T16:45:00;96636.50;;;25.68;27.82
28000;BME280;15328;50.860;10.562;2023-07-13T16:50:01;96640.91;;;25.64;27.63
28000;BME280;15328;50.860;10.562;2023-07-13T16:55:04;96646.00;;;25.57;27.94
28000;BME280;15328;50.860;10.562;2023-07-13T17:00:15;96654.09;;;25.48;27.97
28000;BME280;15328;50.860;10.562;2023-07-13T17:05:18;96653.22;;;25.39;27.72
28000;BME280;15328;50.860;10.562;2023-07-13T17:10:21;96648.06;;;25.38;28.07
28000;BME280;15328;50.860;10.562;2023-07-13T17:15:24;96652.53;;;25.20;28.10
28000;BME280;15328;50.860;10.562;2023-07-13T17:20:30;96664.47;;;25.10;28.04
28000;BME280;15328;50.860;10.562;2023-07-13T17:25:31;96661.44;;;24.98;28.30
28000;BME280;15328;50.860;10.562;2023-07-13T17:30:31;96661.25;;;24.94;28.28
28000;BME280;15328;50.860;10.562;2023-07-13T17:35:34;96658.84;;;24.93;28.71
28000;BME280;15328;50.860;10.562;2023-07-13T17:40:35;96660.03;;;24.87;28.90
28000;BME280;15328;50.860;10.562;2023-07-13T17:45:37;96664.47;;;24.83;28.83
28000;BME280;15328;50.860;10.562;2023-07-13T17:50:37;96665.38;;;24.78;29.30
28000;BME280;15328;50.860;10.562;2023-07-13T17:55:44;96664.69;;;24.73;29.35
28000;BME280;15328;50.860;10.562;2023-07-13T18:00:45;96656.94;;;24.66;29.21
28000;BME280;15328;50.860;10.562;2023-07-13T18:05:49;96666.28;;;24.60;29.41
28000;BME280;15328;50.860;10.562;2023-07-13T18:10:52;96672.13;;;24.53;30.04
28000;BME280;15328;50.860;10.562;2023-07-13T18:15:52;96674.44;;;24.46;30.94
28000;BME280;15328;50.860;10.562;2023-07-13T18:20:53;96675.66;;;24.40;31.56
28000;BME280;15328;50.860;10.562;2023-07-13T18:25:54;96687.09;;;24.37;31.68
28000;BME280;15328;50.860;10.562;2023-07-13T18:30:55;96687.25;;;24.27;32.11
28000;BME280;15328;50.860;10.562;2023-07-13T18:35:58;96691.28;;;24.16;32.36
28000;BME280;15328;50.860;10.562;2023-07-13T18:40:59;96688.50;;;24.02;32.80
28000;BME280;15328;50.860;10.562;2023-07-13T18:46:03;96685.16;;;23.91;32.52
28000;BME280;15328;50.860;10.562;2023-07-13T18:51:10;96691.03;;;23.80;32.39
28000;BME280;15328;50.860;10.562;2023-07-13T18:56:11;96697.44;;;23.70;32.90
28000;BME280;15328;50.860;10.562;2023-07-13T19:01:21;96695.41;;;23.62;33.36
28000;BME280;15328;50.860;10.562;2023-07-13T19:06:24;96703.66;;;23.52;33.62
28000;BME280;15328;50.860;10.562;2023-07-13T19:11:24;96712.84;;;23.37;33.86
28000;BME280;15328;50.860;10.562;2023-07-13T19:16:25;96720.28;;;23.26;33.87
28000;BME280;15328;50.860;10.562;2023-07-13T19:21:36;96723.66;;;23.18;34.52
28000;BME280;15328;50.860;10.562;2023-07-13T19:26:40;96730.03;;;23.08;34.62
28000;BME280;15328;50.860;10.562;2023-07-13T19:31:40;96735.56;;;22.98;34.76
28000;BME280;15328;50.860;10.562;2023-07-13T19:36:42;96745.25;;;22.80;34.74
28000;BME280;15328;50.860;10.562;2023-07-13T19:41:42;96758.78;;;22.57;35.13
28000;BME280;15328;50.860;10.562;2023-07-13T19:46:43;96784.16;;;22.37;35.90
28000;BME280;15328;50.860;10.562;2023-07-13T19:51:43;96794.34;;;22.21;36.69
28000;BME280;15328;50.860;10.562;2023-07-13T19:56:44;96808.22;;;22.09;37.21
28000;BME280;15328;50.860;10.562;2023-07-13T20:01:45;96809.41;;;21.88;38.16
28000;BME280;15328;50.860;10.562;2023-07-13T20:06:45;96807.66;;;21.68;38.83
28000;BME280;15328;50.860;10.562;2023-07-13T20:11:46;96819.25;;;21.74;39.05
28000;BME280;15328;50.860;10.562;2023-07-13T20:16:48;96817.97;;;21.61;39.29
28000;BME280;15328;50.860;10.562;2023-07-13T20:21:50;96819.34;;;21.53;39.46
28000;BME280;15328;50.860;10.562;2023-07-13T20:26:50;96824.22;;;21.56;39.63
28000;BME280;15328;50.860;10.562;2023-07-13T20:31:50;96834.78;;;21.53;39.96
28000;BME280;15328;50.860;10.562;2023-07-13T20:36:52;96846.44;;;21.48;40.22
28000;BME280;15328;50.860;10.562;2023-07-13T20:41:53;96854.53;;;21.53;40.05
28000;BME280;15328;50.860;10.562;2023-07-13T20:46:53;96854.91;;;21.37;40.47
28000;BME280;15328;50.860;10.562;2023-07-13T20:51:54;96864.66;;;21.27;40.59
28000;BME280;15328;50.860;10.562;2023-07-13T20:56:54;96863.03;;;21.06;40.81
28000;BME280;15328;50.860;10.562;2023-07-13T21:01:57;96862.81;;;20.97;41.19
28000;BME280;15328;50.860;10.562;2023-07-13T21:06:58;96869.28;;;20.96;41.53
28000;BME280;15328;50.860;10.562;2023-07-13T21:11:58;96867.69;;;20.85;41.57
28000;BME280;15328;50.860;10.562;2023-07-13T21:16:59;96868.81;;;20.59;42.18
28000;BME280;15328;50.860;10.562;2023-07-13T21:21:59;96879.59;;;20.49;42.71
28000;BME280;15328;50.860;10.562;2023-07-13T21:26:59;96876.06;;;20.33;42.86
28000;BME280;15328;50.860;10.562;2023-07-13T21:32:02;96885.50;;;20.30;42.87
28000;BME280;15328;50.860;10.562;2023-07-13T21:37:02;96874.66;;;20.10;43.10
28000;BME280;15328;50.860;10.562;2023-07-13T21:42:02;96885.69;;;19.93;43.67
28000;BME280;15328;50.860;10.562;2023-07-13T21:47:03;96887.03;;;19.86;43.75
28000;BME280;15328;50.860;10.562;2023-07-13T21:52:16;96895.91;;;19.76;44.20
28000;BME280;15328;50.860;10.562;2023-07-13T21:57:18;96890.47;;;19.71;44.61
28000;BME280;15328;50.860;10.562;2023-07-13T22:02:18;96893.97;;;19.61;44.67
28000;BME280;15328;50.860;10.562;2023-07-13T22:07:19;96884.19;;;19.50;44.79
28000;BME280;15328;50.860;10.562;2023-07-13T22:12:19;96892.75;;;19.42;44.56
28000;BME280;15328;50.860;10.562;2023-07-13T22:17:20;96885.22;;;19.44;44.71
28000;BME280;15328;50.860;10.562;2023-07-13T22:22:20;96883.03;;;19.36;44.72
28000;BME280;15328;50.860;10.562;2023-07-13T22:27:20;96874.38;;;19.34;44.76
28000;BME280;15328;50.860;10.562;2023-07-13T22:32:21;96880.56;;;19.29;44.71
28000;BME280;15328;50.860;10.562;2023-07-13T22:37:21;96883.50;;;19.23;44.93
28000;BME280;15328;50.860;10.562;2023-07-13T22:42:22;96875.13;;;19.19;44.60
28000;BME280;15328;50.860;10.562;2023-07-13T22:47:22;96870.78;;;19.13;44.88
28000;BME280;15328;50.860;10.562;2023-07-13T22:52:22;96872.09;;;19.10;44.86
28000;BME280;15328;50.860;10.562;2023-07-13T22:57:23;96879.34;;;19.00;44.91
28000;BME280;15328;50.860;10.562;2023-07-13T23:02:24;96884.97;;;18.93;45.21
28000;BME280;15328;50.860;10.562;2023-07-13T23:07:24;96881.94;;;18.90;45.22
28000;BME280;15328;50.860;10.562;2023-07-13T23:12:26;96877.06;;;18.81;45.08
28000;BME280;15328;50.860;10.562;2023-07-13T23:17:30;96867.16;;;18.60;45.08
28000;BME280;15328;50.860;10.562;2023-07-13T23:22:30;96865.28;;;18.61;45.01
28000;BME280;15328;50.860;10.562;2023-07-13T23:27:31;96858.63;;;18.63;45.24
28000;BME280;15328;50.860;10.562;2023-07-13T23:32:31;96858.78;;;18.57;45.25
28000;BME280;15328;50.860;10.562;2023-07-13T23:37:32;96854.44;;;18.50;45.19
28000;BME280;15328;50.860;10.562;2023-07-13T23:42:32;96852.00;;;18.49;45.09
28000;BME280;15328;50.860;10.562;2023-07-13T23:47:33;96849.75;;;18.36;45.04
28000;BME280;15328;50.860;10.562;2023-07-13T23:52:33;96854.38;;;18.40;45.27
28000;BME280;15328;50.860;10.562;2023-07-13T23:57:34;96857.03;;;18.35;44.81
